sensor_id;sensor_type;location;lat;lon;timestamp;P1;durP1;ratioP1;P2;durP2;ratioP2
23678;SDS011;12016;51.668;6.874;2023-01-15T00:06:25;3.38;;;1.45;;
23678;SDS011;12016;51.668;6.874;2023-01-15T00:12:28;2.92;;;1.80;;
23678;SDS011;12016;51.668;6.874;2023-01-15T00:18:30;3.72;;;1.55;;
23678;SDS011;12016;51.668;6.874;2023-01-15T00:24:32;1.95;;;1.50;;
23678;SDS011;12016;51.668;6.874;2023-01-15T00:30:53;5.05;;;2.10;;
23678;SDS011;12016;51.668;6.874;2023-01-15T00:36:54;3.15;;;1.98;;
23678;SDS011;12016;51.668;6.874;2023-01-15T00:42:57;3.63;;;2.08;;
23678;SDS011;12016;51.668;6.874;2023-01-15T00:49:00;3.88;;;2.17;;
23678;SDS011;12016;51.668;6.874;2023-01-15T00:55:02;4.30;;;2.20;;
23678;SDS011;12016;51.668;6.874;2023-01-15T01:01:05;2.55;;;2.13;;
23678;SDS011;12016;51.668;6.874;2023-01-15T01:07:08;4.18;;;2.10;;
23678;SDS011;12016;51.668;6.874;2023-01-15T01:13:10;3.20;;;1.90;;
23678;SDS011;12016;51.668;6.874;2023-01-15T01:19:16;2.65;;;1.80;;
23678;SDS011;12016;51.668;6.874;2023-01-15T01:25:20;2.53;;;1.88;;
23678;SDS011;12016;51.668;6.874;2023-01-15T01:31:22;2.60;;;1.77;;
23678;SDS011;12016;51.668;6.874;2023-01-15T01:37:24;3.72;;;1.90;;
23678;SDS011;12016;51.668;6.874;2023-01-15T01:43:28;3.35;;;1.60;;
23678;SDS011;12016;51.668;6.874;2023-01-15T01:49:30;4.32;;;1.60;;
23678;SDS011;12016;51.668;6.874;2023-01-15T01:55:33;3.22;;;1.60;;
23678;SDS011;12016;51.668;6.874;2023-01-15T02:01:37;3.47;;;1.60;;
23678;SDS011;12016;51.668;6.874;2023-01-15T02:07:39;5.18;;;1.83;;
23678;SDS011;12016;51.668;6.874;2023-01-15T02:13:43;2.80;;;1.67;;
23678;SDS011;12016;51.668;6.874;2023-01-15T02:20:02;3.30;;;1.53;;
23678;SDS011;12016;51.668;6.874;2023-01-15T02:32:37;2.63;;;1.65;;
23678;SDS011;12016;51.668;6.874;2023-01-15T02:38:46;2.72;;;1.58;;
23678;SDS011;12016;51.668;6.874;2023-01-15T02:44:52;3.30;;;1.80;;
23678;SDS011;12016;51.668;6.874;2023-01-15T02:51:01;2.45;;;1.60;;
23678;SDS011;12016;51.668;6.874;2023-01-15T02:57:11;3.97;;;1.70;;
23678;SDS011;12016;51.668;6.874;2023-01-15T03:03:30;4.70;;;1.80;;
23678;SDS011;12016;51.668;6.874;2023-01-15T03:09:38;5.28;;;2.25;;
23678;SDS011;12016;51.668;6.874;2023-01-15T03:15:46;2.42;;;1.80;;
23678;SDS011;12016;51.668;6.874;2023-01-15T03:22:21;4.53;;;1.70;;
23678;SDS011;12016;51.668;6.874;2023-01-15T03:28:35;4.70;;;2.00;;
23678;SDS011;12016;51.668;6.874;2023-01-15T03:34:41;4.00;;;1.75;;
23678;SDS011;12016;51.668;6.874;2023-01-15T03:53:47;4.90;;;1.73;;
23678;SDS011;12016;51.668;6.874;2023-01-15T03:59:57;4.65;;;2.00;;
23678;SDS011;12016;51.668;6.874;2023-01-15T04:06:04;5.22;;;2.05;;
23678;SDS011;12016;51.668;6.874;2023-01-15T04:12:10;9.20;;;2.15;;
23678;SDS011;12016;51.668;6.874;2023-01-15T04:18:20;3.92;;;1.80;;
23678;SDS011;12016;51.668;6.874;2023-01-15T04:24:22;3.88;;;1.98;;
23678;SDS011;12016;51.668;6.874;2023-01-15T04:30:24;5.05;;;1.90;;
23678;SDS011;12016;51.668;6.874;2023-01-15T04:36:26;6.38;;;1.90;;
23678;SDS011;12016;51.668;6.874;2023-01-15T04:42:28;4.75;;;1.92;;
23678;SDS011;12016;51.668;6.874;2023-01-15T04:48:49;5.50;;;1.98;;
23678;SDS011;12016;51.668;6.874;2023-01-15T04:54:53;6.07;;;2.20;;
23678;SDS011;12016;51.668;6.874;2023-01-15T05:00:55;5.97;;;2.03;;
23678;SDS011;12016;51.668;6.874;2023-01-15T05:06:57;7.70;;;2.40;;
23678;SDS011;12016;51.668;6.874;2023-01-15T05:12:59;3.50;;;1.90;;
23678;SDS011;12016;51.668;6.874;2023-01-15T05:19:02;5.70;;;2.05;;
23678;SDS011;12016;51.668;6.874;2023-01-15T05:25:06;7.90;;;2.03;;
23678;SDS011;12016;51.668;6.874;2023-01-15T05:31:09;9.63;;;2.30;;
23678;SDS011;12016;51.668;6.874;2023-01-15T05:37:15;6.82;;;2.38;;
23678;SDS011;12016;51.668;6.874;2023-01-15T05:43:17;6.13;;;2.20;;
23678;SDS011;12016;51.668;6.874;2023-01-15T05:49:20;9.52;;;2.47;;
23678;SDS011;12016;51.668;6.874;2023-01-15T05:55:24;8.63;;;2.20;;
23678;SDS011;12016;51.668;6.874;2023-01-15T06:01:25;9.27;;;2.22;;
23678;SDS011;12016;51.668;6.874;2023-01-15T06:07:28;6.68;;;2.13;;
23678;SDS011;12016;51.668;6.874;2023-01-15T06:13:29;5.93;;;2.10;;
23678;SDS011;12016;51.668;6.874;2023-01-15T06:19:31;5.88;;;2.10;;
23678;SDS011;12016;51.668;6.874;2023-01-15T06:25:37;5.70;;;2.42;;
23678;SDS011;12016;51.668;6.874;2023-01-15T06:31:39;6.15;;;2.35;;
23678;SDS011;12016;51.668;6.874;2023-01-15T06:37:41;6.22;;;2.60;;
23678;SDS011;12016;51.668;6.874;2023-01-15T06:43:42;6.15;;;2.53;;
23678;SDS011;12016;51.668;6.874;2023-01-15T06:50:03;6.83;;;2.20;;
23678;SDS011;12016;51.668;6.874;2023-01-15T06:56:05;6.65;;;2.10;;
23678;SDS011;12016;51.668;6.874;2023-01-15T07:02:08;6.18;;;2.53;;
23678;SDS011;12016;51.668;6.874;2023-01-15T07:08:11;6.32;;;1.90;;
23678;SDS011;12016;51.668;6.874;2023-01-15T07:14:20;3.78;;;2.00;;
23678;SDS011;12016;51.668;6.874;2023-01-15T07:20:23;4.73;;;2.27;;
23678;SDS011;12016;51.668;6.874;2023-01-15T07:26:26;5.68;;;1.98;;
23678;SDS011;12016;51.668;6.874;2023-01-15T07:32:28;4.35;;;2.33;;
23678;SDS011;12016;51.668;6.874;2023-01-15T07:38:30;5.88;;;2.40;;
23678;SDS011;12016;51.668;6.874;2023-01-15T07:44:32;5.22;;;2.10;;
23678;SDS011;12016;51.668;6.874;2023-01-15T07:50:52;8.13;;;2.50;;
23678;SDS011;12016;51.668;6.874;2023-01-15T07:56:54;5.55;;;2.03;;
23678;SDS011;12016;51.668;6.874;2023-01-15T08:03:01;7.28;;;2.10;;
23678;SDS011;12016;51.668;6.874;2023-01-15T08:09:04;8.38;;;2.25;;
23678;SDS011;12016;51.668;6.874;2023-01-15T08:15:07;7.53;;;2.25;;
23678;SDS011;12016;51.668;6.874;2023-01-15T08:27:20;5.72;;;2.10;;
23678;SDS011;12016;51.668;6.874;2023-01-15T08:33:21;5.95;;;2.00;;
23678;SDS011;12016;51.668;6.874;2023-01-15T08:39:23;7.72;;;2.40;;
23678;SDS011;12016;51.668;6.874;2023-01-15T08:45:25;5.72;;;2.30;;
23678;SDS011;12016;51.668;6.874;2023-01-15T08:51:27;6.10;;;2.40;;
23678;SDS011;12016;51.668;6.874;2023-01-15T08:57:28;3.67;;;1.88;;
23678;SDS011;12016;51.668;6.874;2023-01-15T09:03:30;5.88;;;2.22;;
23678;SDS011;12016;51.668;6.874;2023-01-15T09:09:33;5.60;;;2.00;;
23678;SDS011;12016;51.668;6.874;2023-01-15T09:15:35;8.43;;;2.35;;
23678;SDS011;12016;51.668;6.874;2023-01-15T09:21:37;4.75;;;2.33;;
23678;SDS011;12016;51.668;6.874;2023-01-15T09:27:38;5.85;;;2.28;;
23678;SDS011;12016;51.668;6.874;2023-01-15T09:33:40;6.72;;;1.95;;
23678;SDS011;12016;51.668;6.874;2023-01-15T09:39:42;4.03;;;1.80;;
23678;SDS011;12016;51.668;6.874;2023-01-15T09:45:44;5.00;;;1.92;;
23678;SDS011;12016;51.668;6.874;2023-01-15T09:58:35;6.07;;;2.10;;
23678;SDS011;12016;51.668;6.874;2023-01-15T10:04:42;6.22;;;1.85;;
23678;SDS011;12016;51.668;6.874;2023-01-15T10:17:18;6.68;;;2.15;;
23678;SDS011;12016;51.668;6.874;2023-01-15T10:29:41;5.50;;;1.83;;
23678;SDS011;12016;51.668;6.874;2023-01-15T10:35:50;5.50;;;2.03;;
23678;SDS011;12016;51.668;6.874;2023-01-15T10:42:09;7.47;;;1.90;;
23678;SDS011;12016;51.668;6.874;2023-01-15T10:54:38;7.20;;;2.30;;
23678;SDS011;12016;51.668;6.874;2023-01-15T11:00:45;4.15;;;2.08;;
23678;SDS011;12016;51.668;6.874;2023-01-15T11:06:53;3.65;;;1.70;;
23678;SDS011;12016;51.668;6.874;2023-01-15T11:12:56;5.13;;;2.00;;
23678;SDS011;12016;51.668;6.874;2023-01-15T11:19:28;4.78;;;2.10;;
23678;SDS011;12016;51.668;6.874;2023-01-15T11:26:15;5.38;;;1.80;;
23678;SDS011;12016;51.668;6.874;2023-01-15T11:32:25;4.30;;;2.00;;
23678;SDS011;12016;51.668;6.874;2023-01-15T11:38:36;5.22;;;2.13;;
23678;SDS011;12016;51.668;6.874;2023-01-15T11:44:51;5.45;;;2.10;;
23678;SDS011;12016;51.668;6.874;2023-01-15T11:51:13;6.65;;;2.20;;
23678;SDS011;12016;51.668;6.874;2023-01-15T11:57:27;4.18;;;2.00;;
23678;SDS011;12016;51.668;6.874;2023-01-15T12:03:33;4.32;;;2.03;;
23678;SDS011;12016;51.668;6.874;2023-01-15T12:22:25;2.67;;;1.50;;
23678;SDS011;12016;51.668;6.874;2023-01-15T12:28:36;2.78;;;1.50;;
23678;SDS011;12016;51.668;6.874;2023-01-15T12:34:45;5.35;;;1.60;;
23678;SDS011;12016;51.668;6.874;2023-01-15T12:40:58;3.53;;;1.35;;
23678;SDS011;12016;51.668;6.874;2023-01-15T12:47:06;2.97;;;1.55;;
23678;SDS011;12016;51.668;6.874;2023-01-15T12:53:21;4.35;;;1.73;;
23678;SDS011;12016;51.668;6.874;2023-01-15T12:59:38;4.10;;;1.63;;
23678;SDS011;12016;51.668;6.874;2023-01-15T13:05:47;3.10;;;1.48;;
23678;SDS011;12016;51.668;6.874;2023-01-15T13:11:55;4.63;;;1.80;;
23678;SDS011;12016;51.668;6.874;2023-01-15T13:18:10;2.95;;;1.40;;
23678;SDS011;12016;51.668;6.874;2023-01-15T13:31:07;3.70;;;1.80;;
23678;SDS011;12016;51.668;6.874;2023-01-15T13:37:23;3.47;;;1.55;;
23678;SDS011;12016;51.668;6.874;2023-01-15T13:43:28;5.75;;;1.70;;
23678;SDS011;12016;51.668;6.874;2023-01-15T13:49:38;5.72;;;1.88;;
23678;SDS011;12016;51.668;6.874;2023-01-15T13:55:49;3.10;;;1.67;;
23678;SDS011;12016;51.668;6.874;2023-01-15T14:01:57;4.95;;;1.83;;
23678;SDS011;12016;51.668;6.874;2023-01-15T14:07:59;3.45;;;1.75;;
23678;SDS011;12016;51.668;6.874;2023-01-15T14:14:16;2.28;;;1.35;;
23678;SDS011;12016;51.668;6.874;2023-01-15T14:26:58;2.38;;;1.70;;
23678;SDS011;12016;51.668;6.874;2023-01-15T14:45:41;2.95;;;1.60;;
23678;SDS011;12016;51.668;6.874;2023-01-15T14:52:33;3.50;;;1.83;;
23678;SDS011;12016;51.668;6.874;2023-01-15T14:58:37;5.10;;;1.63;;
23678;SDS011;12016;51.668;6.874;2023-01-15T15:05:01;2.50;;;1.52;;
23678;SDS011;12016;51.668;6.874;2023-01-15T15:11:23;3.92;;;2.00;;
23678;SDS011;12016;51.668;6.874;2023-01-15T15:24:24;3.67;;;1.50;;
23678;SDS011;12016;51.668;6.874;2023-01-15T15:30:29;3.10;;;1.80;;
23678;SDS011;12016;51.668;6.874;2023-01-15T15:36:37;4.20;;;1.90;;
23678;SDS011;12016;51.668;6.874;2023-01-15T15:42:41;4.72;;;1.95;;
23678;SDS011;12016;51.668;6.874;2023-01-15T15:49:08;4.05;;;1.65;;
23678;SDS011;12016;51.668;6.874;2023-01-15T15:55:13;3.88;;;1.48;;
23678;SDS011;12016;51.668;6.874;2023-01-15T16:01:16;3.10;;;1.70;;
23678;SDS011;12016;51.668;6.874;2023-01-15T16:20:11;2.75;;;1.42;;
23678;SDS011;12016;51.668;6.874;2023-01-15T16:26:15;3.70;;;1.60;;
23678;SDS011;12016;51.668;6.874;2023-01-15T16:32:23;3.75;;;1.75;;
23678;SDS011;12016;51.668;6.874;2023-01-15T16:38:31;2.92;;;1.60;;
23678;SDS011;12016;51.668;6.874;2023-01-15T16:44:38;2.00;;;1.40;;
23678;SDS011;12016;51.668;6.874;2023-01-15T16:50:44;2.90;;;1.50;;
23678;SDS011;12016;51.668;6.874;2023-01-15T16:56:48;2.25;;;1.35;;
23678;SDS011;12016;51.668;6.874;2023-01-15T17:02:54;2.83;;;1.65;;
23678;SDS011;12016;51.668;6.874;2023-01-15T17:08:56;2.78;;;1.70;;
23678;SDS011;12016;51.668;6.874;2023-01-15T17:15:27;2.67;;;1.73;;
23678;SDS011;12016;51.668;6.874;2023-01-15T17:21:35;2.13;;;1.60;;
23678;SDS011;12016;51.668;6.874;2023-01-15T17:27:38;3.13;;;1.60;;
23678;SDS011;12016;51.668;6.874;2023-01-15T17:33:39;6.50;;;1.92;;
23678;SDS011;12016;51.668;6.874;2023-01-15T17:39:42;3.78;;;1.83;;
23678;SDS011;12016;51.668;6.874;2023-01-15T17:45:45;3.88;;;1.70;;
23678;SDS011;12016;51.668;6.874;2023-01-15T17:51:46;3.92;;;1.67;;
23678;SDS011;12016;51.668;6.874;2023-01-15T17:57:49;3.35;;;1.90;;
23678;SDS011;12016;51.668;6.874;2023-01-15T18:04:19;3.67;;;1.60;;
23678;SDS011;12016;51.668;6.874;2023-01-15T18:10:50;2.75;;;1.60;;
23678;SDS011;12016;51.668;6.874;2023-01-15T18:16:52;3.95;;;1.70;;
23678;SDS011;12016;51.668;6.874;2023-01-15T18:22:55;1.88;;;1.50;;
23678;SDS011;12016;51.668;6.874;2023-01-15T18:28:56;2.33;;;1.50;;
23678;SDS011;12016;51.668;6.874;2023-01-15T18:34:59;2.65;;;1.40;;
23678;SDS011;12016;51.668;6.874;2023-01-15T18:41:08;3.03;;;1.60;;
23678;SDS011;12016;51.668;6.874;2023-01-15T18:47:12;2.47;;;1.40;;
23678;SDS011;12016;51.668;6.874;2023-01-15T18:53:15;2.03;;;1.50;;
23678;SDS011;12016;51.668;6.874;2023-01-15T18:59:17;1.60;;;1.30;;
23678;SDS011;12016;51.668;6.874;2023-01-15T19:05:19;2.95;;;1.50;;
23678;SDS011;12016;51.668;6.874;2023-01-15T19:11:21;3.80;;;1.85;;
23678;SDS011;12016;51.668;6.874;2023-01-15T19:17:24;2.83;;;1.50;;
23678;SDS011;12016;51.668;6.874;2023-01-15T19:23:45;1.92;;;1.42;;
23678;SDS011;12016;51.668;6.874;2023-01-15T19:29:47;2.38;;;1.50;;
23678;SDS011;12016;51.668;6.874;2023-01-15T19:35:51;4.18;;;1.52;;
23678;SDS011;12016;51.668;6.874;2023-01-15T19:41:53;3.38;;;1.70;;
23678;SDS011;12016;51.668;6.874;2023-01-15T19:48:14;3.50;;;1.70;;
23678;SDS011;12016;51.668;6.874;2023-01-15T19:54:36;2.92;;;1.70;;
23678;SDS011;12016;51.668;6.874;2023-01-15T20:00:56;4.05;;;2.20;;
23678;SDS011;12016;51.668;6.874;2023-01-15T20:06:58;2.30;;;1.73;;
23678;SDS011;12016;51.668;6.874;2023-01-15T20:13:03;2.97;;;1.83;;
23678;SDS011;12016;51.668;6.874;2023-01-15T20:19:23;3.05;;;1.63;;
23678;SDS011;12016;51.668;6.874;2023-01-15T20:25:30;3.60;;;1.85;;
23678;SDS011;12016;51.668;6.874;2023-01-15T20:31:32;6.85;;;2.33;;
23678;SDS011;12016;51.668;6.874;2023-01-15T20:44:09;4.00;;;2.10;;
23678;SDS011;12016;51.668;6.874;2023-01-15T20:50:31;7.30;;;3.00;;
23678;SDS011;12016;51.668;6.874;2023-01-15T20:56:37;5.82;;;2.80;;
23678;SDS011;12016;51.668;6.874;2023-01-15T21:03:09;5.93;;;3.00;;
23678;SDS011;12016;51.668;6.874;2023-01-15T21:09:12;5.50;;;3.05;;
23678;SDS011;12016;51.668;6.874;2023-01-15T21:15:35;6.97;;;3.53;;
23678;SDS011;12016;51.668;6.874;2023-01-15T21:21:37;6.07;;;2.75;;
23678;SDS011;12016;51.668;6.874;2023-01-15T21:27:39;4.72;;;2.55;;
23678;SDS011;12016;51.668;6.874;2023-01-15T21:33:41;6.47;;;2.70;;
23678;SDS011;12016;51.668;6.874;2023-01-15T21:39:43;4.88;;;2.58;;
23678;SDS011;12016;51.668;6.874;2023-01-15T21:45:45;5.30;;;2.30;;
23678;SDS011;12016;51.668;6.874;2023-01-15T21:51:46;5.68;;;2.80;;
23678;SDS011;12016;51.668;6.874;2023-01-15T21:57:48;6.70;;;2.58;;
23678;SDS011;12016;51.668;6.874;2023-01-15T22:03:51;6.80;;;2.88;;
23678;SDS011;12016;51.668;6.874;2023-01-15T22:09:53;6.15;;;3.00;;
23678;SDS011;12016;51.668;6.874;2023-01-15T22:15:55;8.57;;;2.97;;
23678;SDS011;12016;51.668;6.874;2023-01-15T22:21:58;8.52;;;2.40;;
23678;SDS011;12016;51.668;6.874;2023-01-15T22:28:02;5.80;;;2.72;;
23678;SDS011;12016;51.668;6.874;2023-01-15T22:34:04;4.55;;;2.40;;
23678;SDS011;12016;51.668;6.874;2023-01-15T22:40:06;6.15;;;2.65;;
23678;SDS011;12016;51.668;6.874;2023-01-15T22:46:09;4.70;;;2.60;;
23678;SDS011;12016;51.668;6.874;2023-01-15T22:52:12;4.32;;;2.42;;
23678;SDS011;12016;51.668;6.874;2023-01-15T22:58:14;4.50;;;2.03;;
23678;SDS011;12016;51.668;6.874;2023-01-15T23:04:22;5.28;;;2.30;;
23678;SDS011;12016;51.668;6.874;2023-01-15T23:10:25;5.72;;;2.50;;
23678;SDS011;12016;51.668;6.874;2023-01-15T23:16:27;6.97;;;3.10;;
23678;SDS011;12016;51.668;6.874;2023-01-15T23:22:29;6.55;;;3.10;;
23678;SDS011;12016;51.668;6.874;2023-01-15T23:28:31;6.10;;;3.00;;
23678;SDS011;12016;51.668;6.874;2023-01-15T23:34:32;7.85;;;3.08;;
23678;SDS011;12016;51.668;6.874;2023-01-15T23:40:37;4.70;;;2.70;;
23678;SDS011;12016;51.668;6.874;2023-01-15T23:46:40;5.47;;;2.80;;
23678;SDS011;12016;51.668;6.874;2023-01-15T23:52:42;5.57;;;2.97;;
23678;SDS011;12016;51.668;6.874;2023-01-15T23:58:44;5.15;;;2.72;;
